ADDS METAR Data INFO
IDs: Format: Raw Decoded Include TAF

Data at: 1336 UTC 23 Jun 2018

KPTS 231335Z AUTO 00000KT 10SM CLR 22/19 A2980 RMK AO2 T02220188
KPTS 231315Z AUTO 10004KT 10SM CLR 22/19 A2980 RMK AO2 T02170185
KPTS 231255Z AUTO 08004KT 10SM CLR 22/19 A2979 RMK AO2 T02170186
KPTS 231235Z AUTO 10004KT 10SM CLR 22/19 A2979 RMK AO2 T02170192
KPTS 231215Z AUTO 08005KT 10SM CLR 22/20 A2979 RMK AO2 T02170198
KPTS 231155Z AUTO 07005KT 10SM CLR 21/19 A2979 RMK AO2 T02050194
KPTS 231135Z AUTO 05003KT 10SM CLR 19/19 A2979 RMK AO2 T01920187
KPTS 231115Z AUTO 00000KT 10SM CLR 19/19 A2980 RMK AO2 T01900186
KPTS 231055Z AUTO 03004KT 10SM CLR 19/19 A2980 RMK AO2 T01900185
KPTS 231035Z AUTO 04003KT 10SM CLR 19/19 A2979 RMK AO2 T01900186
KPTS 231015Z AUTO 02006KT 10SM CLR 19/19 A2979 RMK AO2 T01920187
KPTS 230955Z AUTO 01005KT 10SM CLR 20/19 A2978 RMK AO2 T02010194
KPTS 230935Z AUTO 00000KT 10SM CLR 20/19 A2978 RMK AO2 T02030192
KPTS 230915Z AUTO 00000KT 10SM CLR 20/19 A2977 RMK AO2 T02030190
KPTS 230855Z AUTO 00000KT 10SM CLR 21/19 A2976 RMK AO2 T02080193
KPTS 230835Z AUTO 11003KT 10SM CLR 22/20 A2975 RMK AO2 T02170201
KPTS 230815Z AUTO 00000KT 10SM CLR 22/20 A2975 RMK AO2 T02150201
KPTS 230755Z AUTO 00000KT 10SM CLR 22/20 A2977 RMK AO2 T02150201
KPTS 230735Z AUTO 13003KT 10SM CLR 20/20 A2974 RMK AO2 T02040198
KPTS 230715Z AUTO 00000KT 10SM -RA CLR 20/20 A2978 RMK AO2 T02030198
KPTS 230655Z AUTO 00000KT 10SM -RA SCT120 20/20 A2981 RMK AO2 T02030197
KPTS 230635Z AUTO 00000KT 10SM CLR 20/20 A2982 RMK AO2 T02030195
KPTS 230615Z AUTO 00000KT 10SM CLR 21/19 A2984 RMK AO2 T02060193
KPTS 230555Z AUTO 00000KT 10SM CLR 22/20 A2984 RMK AO2 T02170195
KPTS 230535Z AUTO 00000KT 10SM CLR 22/19 A2985 RMK AO2 T02170190
KPTS 230515Z AUTO 00000KT 10SM SCT036 SCT050 SCT060 22/19 A2988 RMK AO2 T02170186
KPTS 230455Z AUTO 33003KT 10SM SCT047 BKN060 22/19 A2989 RMK AO2 LTG DSNT SW AND W T02170185
KPTS 230435Z AUTO 34004KT 10SM BKN048 BKN060 22/19 A2988 RMK AO2 T02170186
KPTS 230415Z AUTO 32007KT 10SM SCT046 22/19 A2989 RMK AO2 LTG DSNT W T02170187
KPTS 230355Z AUTO 04003KT 10SM CLR 22/19 A2982 RMK AO2 T02170185
KPTS 230335Z AUTO 04003KT 10SM CLR 22/18 A2982 RMK AO2 T02170179
KPTS 230315Z AUTO 05003KT 10SM CLR 22/18 A2981 RMK AO2 T02190178
KPTS 230255Z AUTO 03004KT 10SM CLR 23/18 A2980 RMK AO2 T02260181
KPTS 230235Z AUTO 06003KT 10SM CLR 24/19 A2978 RMK AO2 T02360186
KPTS 230215Z AUTO 03004KT 10SM CLR 25/19 A2978 RMK AO2 T02450189
KPTS 230155Z AUTO 05003KT 10SM CLR 25/18 A2977 RMK AO2 T02450182
KPTS 230135Z AUTO 05004KT 10SM CLR 25/18 A2975 RMK AO2 T02450178
KPTS 230115Z AUTO 04003KT 10SM CLR 25/17 A2975 RMK AO2 T02500173
KPTS 230055Z AUTO 01004KT 10SM CLR 26/17 A2975 RMK AO2 T02600173
KPTS 230035Z AUTO 01003KT 10SM CLR 26/17 A2975 RMK AO2 T02600172
KPTS 230015Z AUTO 02004KT 10SM CLR 27/17 A2975 RMK AO2 T02650174
KPTS 222355Z AUTO 05006KT 10SM CLR 27/17 A2974 RMK AO2 T02690174
KPTS 222335Z AUTO 36005KT 10SM CLR 27/17 A2975 RMK AO2 T02730172
KPTS 222315Z AUTO 32003KT 10SM CLR 27/17 A2975 RMK AO2 T02700171
KPTS 222255Z AUTO 01003KT 10SM SCT046 27/17 A2975 RMK AO2 T02680166
KPTS 222235Z AUTO 31006KT 10SM SCT046 27/17 A2977 RMK AO2 T02730166
KPTS 222215Z AUTO 01004KT 10SM SCT046 27/17 A2978 RMK AO2 T02730168
KPTS 222155Z AUTO 31005KT 10SM SCT044 SCT050 27/17 A2979 RMK AO2 T02730168
KPTS 222135Z AUTO 34004KT 10SM SCT046 27/17 A2979 RMK AO2 T02730172
KPTS 222115Z AUTO 31005KT 10SM CLR 27/17 A2980 RMK AO2 T02680171
KPTS 222055Z AUTO 31006KT 10SM SCT044 27/18 A2981 RMK AO2 T02730175
KPTS 222035Z AUTO 31008KT 10SM SCT040 27/18 A2981 RMK AO2 T02720178
KPTS 222015Z AUTO 29004KT 10SM SCT040 SCT046 27/18 A2981 RMK AO2 T02650176
KPTS 221955Z AUTO 29006KT 10SM SCT041 SCT048 26/18 A2983 RMK AO2 T02640177
KPTS 221935Z AUTO 31003KT 10SM SCT037 BKN050 26/18 A2983 RMK AO2 T02610179
KPTS 221915Z AUTO 00000KT 10SM SCT037 BKN044 OVC050 26/18 A2984 RMK AO2 T02600179
KPTS 221855Z AUTO 27006KT 10SM SCT031 BKN047 26/18 A2985 RMK AO2 T02590180
KPTS 221835Z AUTO 29004KT 10SM SCT031 BKN037 BKN045 26/18 A2986 RMK AO2 T02550180
KPTS 221815Z AUTO 28004KT 10SM BKN031 BKN037 26/18 A2985 RMK AO2 T02560181
KPTS 221755Z AUTO 28004KT 10SM SCT029 BKN038 25/18 A2985 RMK AO2 T02470178
KPTS 221735Z AUTO 33003KT 10SM OVC035 25/18 A2986 RMK AO2 T02450179
KPTS 221715Z AUTO 31004KT 10SM OVC031 25/18 A2987 RMK AO2 T02450178
KPTS 221655Z AUTO 30003KT 10SM OVC031 25/18 A2986 RMK AO2 T02450184
KPTS 221635Z AUTO 34005KT 10SM OVC031 25/19 A2987 RMK AO2 T02450186
KPTS 221615Z AUTO 32004KT 10SM SCT020 SCT026 OVC031 24/18 A2987 RMK AO2 T02370184
KPTS 221555Z AUTO 31004KT 10SM SCT020 OVC031 24/19 A2987 RMK AO2 T02350185
KPTS 221535Z AUTO 34004KT 10SM OVC031 23/19 A2987 RMK AO2 T02340189
KPTS 221515Z AUTO 36003KT 10SM SCT019 OVC031 23/19 A2986 RMK AO2 T02320186
KPTS 221455Z AUTO 35006KT 10SM SCT019 SCT023 OVC031 23/19 A2986 RMK AO2 T02310186
KPTS 221435Z AUTO 35004KT 10SM SCT019 SCT025 OVC031 23/18 A2986 RMK AO2 T02260181
KPTS 221415Z AUTO 33006KT 10SM SCT019 OVC027 22/18 A2986 RMK AO2 T02190179
KPTS 221355Z AUTO 00000KT 10SM OVC025 22/18 A2986 RMK AO2 T02170184
KPTS 221335Z AUTO 00000KT 10SM OVC023 22/19 A2986 RMK AO2 T02170192
KPTS 221315Z AUTO 25003KT 10SM SCT014 OVC019 22/19 A2987 RMK AO2 T02160194
KPTS 221255Z AUTO 00000KT 10SM BKN014 OVC019 21/19 A2987 RMK AO2 T02060186
KPTS 221235Z AUTO 00000KT 10SM OVC009 20/19 A2987 RMK AO2 T02030186
KPTS 221215Z AUTO 33003KT 10SM OVC009 20/19 A2986 RMK AO2 T02030187
KPTS 221155Z AUTO 00000KT 10SM OVC009 20/19 A2985 RMK AO2 T02030187
KPTS 221135Z AUTO 36006KT 10SM OVC009 20/19 A2984 RMK AO2 T02030189
KPTS 221115Z AUTO 34003KT 10SM OVC009 20/18 A2983 RMK AO2 T01950182
KPTS 221055Z AUTO 34005KT 10SM OVC009 19/18 A2982 RMK AO2 T01940180
KPTS 221035Z AUTO 35004KT 10SM OVC011 19/18 A2982 RMK AO2 T01910176
KPTS 221015Z AUTO 32003KT 10SM OVC011 19/18 A2981 RMK AO2 T01900178
KPTS 220955Z AUTO 00000KT 10SM BKN011 19/18 A2982 RMK AO2 T01900178
KPTS 220935Z AUTO 00000KT 10SM CLR 19/18 A2981 RMK AO2 T01900177
KPTS 220855Z AUTO 00000KT 10SM CLR 20/18 A2981 RMK AO2 T02020181
KPTS 220835Z AUTO 34003KT 10SM CLR 20/18 A2980 RMK AO2 T02030180
KPTS 220815Z AUTO 31004KT 10SM CLR 20/18 A2981 RMK AO2 T02030178
KPTS 220755Z AUTO 31004KT 10SM CLR 21/18 A2981 RMK AO2 T02060180
KPTS 220735Z AUTO 00000KT 10SM CLR 22/19 A2980 RMK AO2 T02170187
KPTS 220715Z AUTO 32004KT 10SM CLR 22/19 A2981 RMK AO2 T02170185
KPTS 220655Z AUTO 31004KT 10SM CLR 22/18 A2981 RMK AO2 T02170184
KPTS 220635Z AUTO 31003KT 10SM CLR 22/18 A2981 RMK AO2 T02170183
KPTS 220615Z AUTO 00000KT 10SM CLR 22/18 A2981 RMK AO2 T02170183
KPTS 220555Z AUTO 00000KT 10SM CLR 22/18 A2982 RMK AO2 T02170180
KPTS 220535Z AUTO 33003KT 10SM CLR 22/18 A2982 RMK AO2 T02170175
KPTS 220515Z AUTO 34003KT 10SM CLR 22/17 A2982 RMK AO2 T02170170
KPTS 220455Z AUTO 00000KT 10SM CLR 22/17 A2982 RMK AO2 T02170165
KPTS 220435Z AUTO 00000KT 10SM CLR 22/16 A2982 RMK AO2 T02170160
KPTS 220415Z AUTO 32005KT 10SM SCT080 22/16 A2982 RMK AO2 T02200159
KPTS 220355Z AUTO 31004KT 10SM SCT080 BKN090 23/16 A2982 RMK AO2 T02260162
KPTS 220335Z AUTO 32004KT 10SM SCT065 SCT090 23/16 A2982 RMK AO2 T02310164
KPTS 220315Z AUTO 33004KT 10SM BKN065 23/16 A2982 RMK AO2 T02320161
KPTS 220255Z AUTO 33006KT 10SM SCT065 SCT085 24/17 A2982 RMK AO2 T02440167
KPTS 220235Z AUTO 33005KT 10SM SCT085 25/16 A2981 RMK AO2 T02450164
KPTS 220215Z AUTO 32006KT 10SM SCT085 25/16 A2980 RMK AO2 T02450159
KPTS 220155Z AUTO 33006KT 10SM SCT085 25/16 A2979 RMK AO2 T02450157